createdAt,value
2022-09-15T00:01:24.687Z,80.80
2022-09-15T00:03:56.480Z,81.14
2022-09-15T00:06:32.791Z,81.00
2022-09-15T00:09:04.681Z,80.58
2022-09-15T00:11:40.993Z,80.39
2022-09-15T00:14:12.703Z,80.91
2022-09-15T00:16:44.348Z,80.76
2022-09-15T00:19:17.960Z,80.76
2022-09-15T00:21:49.554Z,80.65
2022-09-15T00:24:21.302Z,80.45
2022-09-15T00:26:52.876Z,79.95
2022-09-15T00:29:24.523Z,79.95
2022-09-15T00:31:56.219Z,80.12
2022-09-15T00:34:30.965Z,79.99
2022-09-15T00:37:02.644Z,80.25
2022-09-15T00:39:34.633Z,80.07
2022-09-15T00:42:07.521Z,80.56
2022-09-15T00:44:58.326Z,80.70
2022-09-15T00:47:40.772Z,80.52
2022-09-15T00:50:16.674Z,80.39
2022-09-15T00:53:00.468Z,80.16
2022-09-15T00:55:36.061Z,79.90
2022-09-15T00:58:11.878Z,79.31
2022-09-15T01:00:55.551Z,79.48
2022-09-15T01:03:32.633Z,78.87
2022-09-15T01:06:12.048Z,79.01
2022-09-15T01:08:51.411Z,78.92
2022-09-15T01:11:23.122Z,78.21
2022-09-15T01:13:55.058Z,77.80
2022-09-15T01:16:51.563Z,77.48
2022-09-15T01:19:49.785Z,78.00
2022-09-15T01:22:59.986Z,77.31
2022-09-15T01:26:02.770Z,77.36
2022-09-15T01:29:01.917Z,77.44
2022-09-15T01:32:05.770Z,77.84
2022-09-15T01:34:44.551Z,78.03
2022-09-15T01:37:21.156Z,78.05
2022-09-15T01:39:54.459Z,78.51
2022-09-15T01:42:28.608Z,78.76
2022-09-15T01:45:08.936Z,78.99
2022-09-15T01:47:41.972Z,79.36
2022-09-15T01:50:18.924Z,79.77
2022-09-15T01:52:54.603Z,80.70
2022-09-15T01:55:41.446Z,81.57
2022-09-15T01:58:13.091Z,82.19
2022-09-15T02:00:49.996Z,82.84
2022-09-15T02:03:32.102Z,83.29
2022-09-15T02:06:15.860Z,82.78
2022-09-15T02:09:03.066Z,83.26
2022-09-15T02:11:36.845Z,83.22
2022-09-15T02:14:17.371Z,82.67
2022-09-15T02:16:52.792Z,82.66
2022-09-15T02:19:41.825Z,83.63
2022-09-15T02:22:23.578Z,83.40
2022-09-15T02:25:05.769Z,83.66
2022-09-15T02:27:44.659Z,83.91
2022-09-15T02:30:19.677Z,83.34
2022-09-15T02:33:00.840Z,83.34
2022-09-15T02:35:36.312Z,83.61
2022-09-15T02:38:09.990Z,83.80
2022-09-15T02:40:43.752Z,83.38
2022-09-15T02:43:17.837Z,83.28
2022-09-15T02:45:49.830Z,83.38
2022-09-15T02:48:22.136Z,83.26
2022-09-15T02:50:53.791Z,83.27
2022-09-15T02:53:25.469Z,83.07
2022-09-15T02:55:57.969Z,83.39
2022-09-15T02:58:29.928Z,83.33
2022-09-15T03:01:04.305Z,83.15
2022-09-15T03:03:37.902Z,83.42
2022-09-15T03:06:18.481Z,83.45
2022-09-15T03:08:53.134Z,83.50
2022-09-15T03:11:26.897Z,83.33
2022-09-15T03:14:07.990Z,83.19
2022-09-15T03:16:40.221Z,82.91
2022-09-15T03:19:12.381Z,83.01
2022-09-15T03:21:44.023Z,82.89
2022-09-15T03:24:15.883Z,82.59
2022-09-15T03:26:48.539Z,82.75
2022-09-15T03:29:20.219Z,83.08
2022-09-15T03:31:52.376Z,83.16
2022-09-15T03:34:23.998Z,83.32
2022-09-15T03:36:55.617Z,83.23
2022-09-15T03:39:27.241Z,83.05
2022-09-15T03:41:58.945Z,83.14
2022-09-15T03:44:32.263Z,83.38
2022-09-15T03:47:04.090Z,83.09
2022-09-15T03:49:35.769Z,82.88
2022-09-15T03:52:07.385Z,83.18
2022-09-15T03:54:39.915Z,83.37
2022-09-15T03:57:11.563Z,83.85
2022-09-15T03:59:43.251Z,84.24
2022-09-15T04:02:14.999Z,83.96
2022-09-15T04:04:49.305Z,83.94
2022-09-15T04:07:23.832Z,83.78
2022-09-15T04:09:55.302Z,83.54
2022-09-15T04:12:28.602Z,83.25
2022-09-15T04:15:00.870Z,83.01
2022-09-15T04:17:32.774Z,82.72
2022-09-15T04:20:04.625Z,82.50
2022-09-15T04:22:36.358Z,82.30
2022-09-15T04:25:09.344Z,82.11
2022-09-15T04:27:41.018Z,82.30
2022-09-15T04:30:16.709Z,82.08
2022-09-15T04:32:48.789Z,82.19
2022-09-15T04:35:22.064Z,82.19
2022-09-15T04:37:54.646Z,81.98
2022-09-15T04:40:26.343Z,82.29
2022-09-15T04:42:58.231Z,82.44
2022-09-15T04:45:29.856Z,82.28
2022-09-15T04:48:01.601Z,82.08
2022-09-15T04:50:34.009Z,81.50
2022-09-15T04:53:07.328Z,81.29
2022-09-15T04:55:39.441Z,81.18
2022-09-15T04:58:13.202Z,81.47
2022-09-15T05:00:44.873Z,81.95
2022-09-15T05:03:16.540Z,82.34
2022-09-15T05:05:48.286Z,82.69
2022-09-15T05:08:19.924Z,82.35
2022-09-15T05:10:51.594Z,81.83
2022-09-15T05:13:23.211Z,81.92
2022-09-15T05:15:54.990Z,81.83
2022-09-15T05:18:26.593Z,81.77
2022-09-15T05:20:59.857Z,81.43
2022-09-15T05:23:33.150Z,80.81
2022-09-15T05:26:11.856Z,80.45
2022-09-15T05:28:43.734Z,80.57
2022-09-15T05:31:21.477Z,80.42
2022-09-15T05:33:53.625Z,80.39
2022-09-15T05:36:25.586Z,80.71
2022-09-15T05:38:57.821Z,80.74
2022-09-15T05:41:29.835Z,80.55
2022-09-15T05:44:01.649Z,80.53
2022-09-15T05:46:34.382Z,80.45
2022-09-15T05:49:07.291Z,80.17
2022-09-15T05:51:39.216Z,80.04
2022-09-15T05:54:10.817Z,79.58
2022-09-15T05:56:44.574Z,79.99
2022-09-15T05:59:16.223Z,79.51
2022-09-15T06:01:48.050Z,79.70
2022-09-15T06:04:19.745Z,79.36
2022-09-15T06:06:51.392Z,79.21
2022-09-15T06:09:23.073Z,79.69
2022-09-15T06:11:57.402Z,78.99
2022-09-15T06:14:28.960Z,78.34
2022-09-15T06:17:00.575Z,78.24
2022-09-15T06:19:33.423Z,78.00
2022-09-15T06:22:05.041Z,78.06
2022-09-15T06:24:36.617Z,77.23
2022-09-15T06:27:08.225Z,76.86
2022-09-15T06:29:39.950Z,76.15
2022-09-15T06:32:11.625Z,75.78
2022-09-15T06:34:43.269Z,75.67
2022-09-15T06:37:15.862Z,75.42
2022-09-15T06:39:49.748Z,75.38
2022-09-15T06:42:21.467Z,75.19
2022-09-15T06:44:53.153Z,75.63
2022-09-15T06:47:24.798Z,74.97
2022-09-15T06:49:56.475Z,74.60
2022-09-15T06:52:28.140Z,74.19
2022-09-15T06:55:00.088Z,74.16
2022-09-15T06:57:31.759Z,74.44
2022-09-15T07:00:05.290Z,73.91
2022-09-15T07:02:36.976Z,73.67
2022-09-15T07:05:10.940Z,73.21
2022-09-15T07:07:42.795Z,73.44
2022-09-15T07:10:14.396Z,73.28
2022-09-15T07:12:46.304Z,73.35
2022-09-15T07:15:17.950Z,73.08
2022-09-15T07:17:49.565Z,72.98
2022-09-15T07:20:24.193Z,72.87
2022-09-15T07:22:55.867Z,73.02
2022-09-15T07:25:27.443Z,72.64
2022-09-15T07:27:59.099Z,72.55
2022-09-15T07:30:30.689Z,73.11
2022-09-15T07:33:02.319Z,73.06
2022-09-15T07:35:34.479Z,73.15
2022-09-15T07:38:06.135Z,73.54
2022-09-15T07:40:38.431Z,73.83
2022-09-15T07:43:10.201Z,73.69
2022-09-15T07:45:42.487Z,73.97
2022-09-15T07:48:14.173Z,73.48
2022-09-15T07:50:46.987Z,72.87
2022-09-15T07:53:18.568Z,72.82
2022-09-15T07:55:53.645Z,72.99
2022-09-15T07:58:25.540Z,72.63
2022-09-15T08:01:05.191Z,72.90
2022-09-15T08:03:40.801Z,72.78
2022-09-15T08:06:13.411Z,71.95
2022-09-15T08:08:45.687Z,72.52
2022-09-15T08:11:19.691Z,73.18
2022-09-15T08:13:52.495Z,73.65
2022-09-15T08:16:24.863Z,74.16
2022-09-15T08:18:56.891Z,74.35
2022-09-15T08:21:31.786Z,74.55
2022-09-15T08:24:06.502Z,74.96
2022-09-15T08:26:38.522Z,75.15
2022-09-15T08:29:10.138Z,75.69
2022-09-15T08:31:43.032Z,75.68
2022-09-15T08:34:16.550Z,75.30
2022-09-15T08:36:48.234Z,74.45
2022-09-15T08:39:19.887Z,74.26
2022-09-15T08:41:53.987Z,75.19
2022-09-15T08:44:44.788Z,75.92
2022-09-15T08:47:43.150Z,76.13
2022-09-15T08:50:27.309Z,76.13
2022-09-15T08:53:06.648Z,75.62
2022-09-15T08:55:45.556Z,75.48
2022-09-15T08:58:23.199Z,75.91
2022-09-15T09:01:26.890Z,76.04
2022-09-15T09:04:22.503Z,77.08
2022-09-15T09:07:24.970Z,76.75
2022-09-15T09:10:15.811Z,76.46
2022-09-15T09:12:52.963Z,76.76
2022-09-15T09:15:24.599Z,76.92
2022-09-15T09:18:02.254Z,77.02
2022-09-15T09:20:36.530Z,77.55
2022-09-15T09:23:14.578Z,77.38
2022-09-15T09:25:47.145Z,77.88
2022-09-15T09:29:00.399Z,77.78
2022-09-15T09:31:36.087Z,77.35
2022-09-15T09:34:22.343Z,76.87
2022-09-15T09:37:08.654Z,77.14
2022-09-15T09:39:40.387Z,77.57
2022-09-15T09:42:16.201Z,77.97
2022-09-15T09:44:47.878Z,77.94
2022-09-15T09:47:20.565Z,77.40
2022-09-15T09:49:52.351Z,77.23
2022-09-15T09:52:38.467Z,77.21
2022-09-15T09:55:30.307Z,77.69
2022-09-15T09:58:14.543Z,77.13
2022-09-15T10:00:47.324Z,77.42
2022-09-15T10:03:32.171Z,77.33
2022-09-15T10:06:15.903Z,77.16
2022-09-15T10:09:05.216Z,77.79
2022-09-15T10:12:00.100Z,77.64
2022-09-15T10:14:42.137Z,77.82
2022-09-15T10:17:15.649Z,77.75
2022-09-15T10:19:54.233Z,77.21
2022-09-15T10:22:33.788Z,77.06
2022-09-15T10:25:20.498Z,77.54
2022-09-15T10:28:14.129Z,77.52
2022-09-15T10:31:29.547Z,76.08
2022-09-15T10:34:25.313Z,76.19
2022-09-15T10:37:15.198Z,76.82
2022-09-15T10:39:52.355Z,77.89
2022-09-15T10:42:46.103Z,78.47
2022-09-15T10:45:34.220Z,78.70
2022-09-15T10:48:14.875Z,78.25
2022-09-15T10:50:54.636Z,77.27
2022-09-15T10:53:41.532Z,76.88
2022-09-15T10:56:38.902Z,76.93
2022-09-15T10:59:23.793Z,77.68
2022-09-15T11:02:01.416Z,78.56
2022-09-15T11:04:49.692Z,78.04
2022-09-15T11:07:46.282Z,78.69
2022-09-15T11:10:31.996Z,77.48
2022-09-15T11:13:17.427Z,78.19
2022-09-15T11:16:11.916Z,79.40
2022-09-15T11:18:55.429Z,78.30
2022-09-15T11:21:35.127Z,77.96
2022-09-15T11:24:28.386Z,76.79
2022-09-15T11:27:11.353Z,77.04
2022-09-15T11:30:01.209Z,76.47
2022-09-15T11:32:40.022Z,76.47
2022-09-15T11:35:33.284Z,75.61
2022-09-15T11:38:13.038Z,75.89
2022-09-15T11:40:52.751Z,75.96
2022-09-15T11:43:37.714Z,75.42
2022-09-15T11:46:13.540Z,74.99
2022-09-15T11:48:56.531Z,74.45
2022-09-15T11:51:34.974Z,75.00
2022-09-15T11:54:13.784Z,74.45
2022-09-15T11:56:47.403Z,73.46
2022-09-15T11:59:29.266Z,73.72
2022-09-15T12:02:24.657Z,73.10
2022-09-15T12:05:11.967Z,71.75
2022-09-15T12:08:06.761Z,72.31
2022-09-15T12:10:43.414Z,73.25
2022-09-15T12:13:19.947Z,72.99
2022-09-15T12:15:53.463Z,72.77
2022-09-15T12:18:41.973Z,72.05
2022-09-15T12:21:27.832Z,72.09
2022-09-15T12:24:58.877Z,71.26
2022-09-15T12:28:03.661Z,71.12
2022-09-15T12:30:43.326Z,71.30
2022-09-15T12:34:30.051Z,71.87
2022-09-15T12:37:19.617Z,72.68
2022-09-15T12:39:54.567Z,71.85
2022-09-15T12:46:01.190Z,72.21
2022-09-15T12:51:53.874Z,71.78
2022-09-15T12:54:46.512Z,71.78
2022-09-15T12:58:04.032Z,72.76
2022-09-15T13:01:23.190Z,72.59
2022-09-15T13:03:57.902Z,73.39
2022-09-15T13:06:34.111Z,72.94
2022-09-15T13:09:06.106Z,72.02
2022-09-15T13:11:46.403Z,71.76
2022-09-15T13:14:35.678Z,71.37
2022-09-15T13:17:14.443Z,72.35
2022-09-15T13:19:49.167Z,73.38
2022-09-15T13:22:31.261Z,73.75
2022-09-15T13:25:19.689Z,74.94
2022-09-15T13:27:57.769Z,73.92
2022-09-15T13:31:02.238Z,73.68
2022-09-15T13:40:08.671Z,75.78
2022-09-15T13:43:15.649Z,76.10
2022-09-15T13:45:54.963Z,76.40
2022-09-15T13:49:02.623Z,76.10
2022-09-15T13:51:35.014Z,75.34
2022-09-15T13:54:15.202Z,74.82
2022-09-15T13:56:49.104Z,74.37
2022-09-15T13:59:25.518Z,73.77
2022-09-15T14:02:00.351Z,73.55
2022-09-15T14:04:32.278Z,72.33
2022-09-15T14:07:03.935Z,72.30
2022-09-15T14:09:44.711Z,72.78
2022-09-15T14:12:18.237Z,71.63
2022-09-15T14:14:58.179Z,71.76
2022-09-15T14:17:31.545Z,71.45
2022-09-15T14:20:06.091Z,71.16
2022-09-15T14:22:40.821Z,71.80
2022-09-15T14:25:16.807Z,71.86
2022-09-15T14:27:51.302Z,72.24
2022-09-15T14:30:22.815Z,71.91
2022-09-15T14:32:59.681Z,72.52
2022-09-15T14:35:38.163Z,71.92
2022-09-15T14:38:22.492Z,72.29
2022-09-15T14:40:56.904Z,72.62
2022-09-15T14:43:40.334Z,71.93
2022-09-15T14:46:20.840Z,71.45
2022-09-15T14:48:52.524Z,71.65
2022-09-15T14:51:28.561Z,72.10
2022-09-15T14:54:03.081Z,71.06
2022-09-15T14:56:36.154Z,69.82
2022-09-15T14:59:15.222Z,70.31
2022-09-15T15:02:00.889Z,70.73
2022-09-15T15:04:41.260Z,70.32
2022-09-15T15:07:22.636Z,70.06
2022-09-15T15:10:06.615Z,70.47
2022-09-15T15:12:45.411Z,68.21
2022-09-15T15:15:18.101Z,68.84
2022-09-15T15:17:54.525Z,69.03
2022-09-15T15:20:30.206Z,68.09
2022-09-15T15:23:23.324Z,67.96
2022-09-15T15:26:29.719Z,68.01
2022-09-15T15:29:01.647Z,68.57
2022-09-15T15:31:33.680Z,68.06
2022-09-15T15:34:19.598Z,67.78
2022-09-15T15:36:51.163Z,67.83
2022-09-15T15:39:27.589Z,67.96
2022-09-15T15:42:02.623Z,68.00
2022-09-15T15:44:37.319Z,67.97
2022-09-15T15:47:31.536Z,67.19
2022-09-15T15:50:14.296Z,66.44
2022-09-15T15:52:47.614Z,67.03
2022-09-15T15:55:24.810Z,67.20
2022-09-15T15:57:56.481Z,67.11
2022-09-15T16:00:45.123Z,67.25
2022-09-15T16:03:17.925Z,67.72
2022-09-15T16:05:57.018Z,67.03
2022-09-15T16:08:31.970Z,66.62
2022-09-15T16:11:04.573Z,66.49
2022-09-15T16:13:36.265Z,66.14
2022-09-15T16:16:20.192Z,66.67
2022-09-15T16:18:52.437Z,66.48
2022-09-15T16:21:32.505Z,66.52
2022-09-15T16:24:15.492Z,65.41
2022-09-15T16:26:49.543Z,64.81
2022-09-15T16:29:28.109Z,64.88
2022-09-15T16:31:59.910Z,65.11
2022-09-15T16:34:31.522Z,65.01
2022-09-15T16:37:03.151Z,64.96
2022-09-15T16:39:34.740Z,64.84
2022-09-15T16:42:06.571Z,65.05
2022-09-15T16:44:38.724Z,64.67
2022-09-15T16:47:10.436Z,64.80
2022-09-15T16:49:42.218Z,64.83
2022-09-15T16:52:14.017Z,64.59
2022-09-15T16:54:45.732Z,65.17
2022-09-15T16:57:19.467Z,65.18
2022-09-15T16:59:51.114Z,64.85
2022-09-15T17:02:22.889Z,65.18
2022-09-15T17:04:57.185Z,64.97
2022-09-15T17:07:29.275Z,64.62
2022-09-15T17:10:03.703Z,64.29
2022-09-15T17:12:37.054Z,64.21
2022-09-15T17:15:20.155Z,64.58
2022-09-15T17:17:52.136Z,63.91
2022-09-15T17:20:25.157Z,64.07
2022-09-15T17:22:57.881Z,63.91
2022-09-15T17:25:35.525Z,63.63
2022-09-15T17:28:08.163Z,63.72
2022-09-15T17:30:45.866Z,63.80
2022-09-15T17:33:19.182Z,64.00
2022-09-15T17:35:51.572Z,64.49
2022-09-15T17:38:23.949Z,64.30
2022-09-15T17:41:22.766Z,64.35
2022-09-15T17:43:54.523Z,64.37
2022-09-15T17:46:26.427Z,64.50
2022-09-15T17:48:58.339Z,64.74
2022-09-15T17:51:34.078Z,65.20
2022-09-15T17:54:07.595Z,65.29
2022-09-15T17:56:42.083Z,65.25
2022-09-15T17:59:16.380Z,65.66
2022-09-15T18:01:48.415Z,65.94
2022-09-15T18:04:20.209Z,65.78
2022-09-15T18:06:52.088Z,66.02
2022-09-15T18:09:23.974Z,66.22
2022-09-15T18:11:55.707Z,66.19
2022-09-15T18:14:31.676Z,66.29
2022-09-15T18:17:05.439Z,66.05
2022-09-15T18:19:37.406Z,66.07
2022-09-15T18:22:13.161Z,66.27
2022-09-15T18:24:47.037Z,66.50
2022-09-15T18:27:18.751Z,66.62
2022-09-15T18:29:50.507Z,66.53
2022-09-15T18:32:22.242Z,66.75
2022-09-15T18:34:53.986Z,66.85
2022-09-15T18:37:25.672Z,67.11
2022-09-15T18:40:08.567Z,66.88
2022-09-15T18:42:40.833Z,66.76
2022-09-15T18:45:15.830Z,66.94
2022-09-15T18:47:49.156Z,65.88
2022-09-15T18:50:25.236Z,65.90
2022-09-15T18:52:56.827Z,65.60
2022-09-15T18:55:32.926Z,65.47
2022-09-15T18:58:06.724Z,64.62
2022-09-15T19:00:40.784Z,64.24
2022-09-15T19:03:14.544Z,63.84
2022-09-15T19:05:46.417Z,64.08
2022-09-15T19:08:18.149Z,63.85
2022-09-15T19:11:00.200Z,64.37
2022-09-15T19:13:35.668Z,64.69
2022-09-15T19:16:10.928Z,65.00
2022-09-15T19:18:46.229Z,65.32
2022-09-15T19:21:18.593Z,64.78
2022-09-15T19:23:50.391Z,64.56
2022-09-15T19:26:28.887Z,64.77
2022-09-15T19:29:00.485Z,64.48
2022-09-15T19:31:32.344Z,64.40
2022-09-15T19:34:04.495Z,63.83
2022-09-15T19:36:36.124Z,63.81
2022-09-15T19:39:07.945Z,63.88
2022-09-15T19:41:39.639Z,63.83
2022-09-15T19:44:11.302Z,63.29
2022-09-15T19:46:43.439Z,63.49
2022-09-15T19:49:15.178Z,63.25
2022-09-15T19:51:47.057Z,62.81
2022-09-15T19:54:26.284Z,62.45
2022-09-15T19:56:58.168Z,62.38
2022-09-15T19:59:31.538Z,62.78
2022-09-15T20:02:03.783Z,62.87
2022-09-15T20:04:35.417Z,60.83
2022-09-15T20:07:09.772Z,59.51
2022-09-15T20:09:41.343Z,59.72
2022-09-15T20:12:13.403Z,59.49
2022-09-15T20:14:45.166Z,59.37
2022-09-15T20:17:16.932Z,58.32
2022-09-15T20:19:51.328Z,57.71
2022-09-15T20:22:23.981Z,57.74
2022-09-15T20:24:56.119Z,58.58
2022-09-15T20:27:27.889Z,57.03
2022-09-15T20:29:59.607Z,57.37
2022-09-15T20:32:33.273Z,57.16
2022-09-15T20:35:05.294Z,57.57
2022-09-15T20:37:37.756Z,57.49
2022-09-15T20:40:09.993Z,57.58
2022-09-15T20:42:41.687Z,57.76
2022-09-15T20:45:13.454Z,57.47
2022-09-15T20:47:45.096Z,57.49
2022-09-15T20:50:20.184Z,57.32
2022-09-15T20:52:52.076Z,57.70
2022-09-15T20:55:25.913Z,57.46
2022-09-15T20:57:57.516Z,58.03
2022-09-15T21:00:33.633Z,58.13
2022-09-15T21:03:05.536Z,58.43
2022-09-15T21:05:37.134Z,58.44
2022-09-15T21:08:12.078Z,58.90
2022-09-15T21:10:44.996Z,59.10
2022-09-15T21:13:16.630Z,59.24
2022-09-15T21:15:57.070Z,58.87
2022-09-15T21:18:33.873Z,58.85
2022-09-15T21:21:11.783Z,58.68
2022-09-15T21:23:46.069Z,58.81
2022-09-15T21:26:20.185Z,58.97
2022-09-15T21:28:53.039Z,59.49
2022-09-15T21:31:27.244Z,59.77
2022-09-15T21:33:59.573Z,60.09
2022-09-15T21:36:31.901Z,60.95
2022-09-15T21:39:03.597Z,61.82
2022-09-15T21:41:35.915Z,62.40
2022-09-15T21:44:07.837Z,62.41
2022-09-15T21:46:39.794Z,63.01
2022-09-15T21:49:11.394Z,63.61
2022-09-15T21:51:42.993Z,63.82
2022-09-15T21:54:15.078Z,63.97
2022-09-15T21:56:46.735Z,63.81
2022-09-15T21:59:18.497Z,64.15
2022-09-15T22:01:50.144Z,64.72
2022-09-15T22:04:21.849Z,65.07
2022-09-15T22:06:53.968Z,65.49
2022-09-15T22:09:26.309Z,65.21
2022-09-15T22:11:57.972Z,65.23
2022-09-15T22:14:31.046Z,65.70
2022-09-15T22:17:02.652Z,65.41
2022-09-15T22:19:34.284Z,65.61
2022-09-15T22:22:06.167Z,65.73
2022-09-15T22:24:38.018Z,66.26
2022-09-15T22:27:09.606Z,66.26
2022-09-15T22:29:41.220Z,66.14
2022-09-15T22:32:12.781Z,66.18
2022-09-15T22:34:45.624Z,65.95
2022-09-15T22:37:17.196Z,65.71
2022-09-15T22:39:58.820Z,65.96
2022-09-15T22:42:31.003Z,66.21
2022-09-15T22:45:02.883Z,66.61
2022-09-15T22:47:34.511Z,66.68
2022-09-15T22:50:06.258Z,66.64
2022-09-15T22:52:37.836Z,66.97
2022-09-15T22:55:09.473Z,67.22
2022-09-15T22:57:41.711Z,67.54
2022-09-15T23:00:13.860Z,67.32
2022-09-15T23:02:46.661Z,67.59
2022-09-15T23:05:18.294Z,67.79
2022-09-15T23:07:49.993Z,68.07
2022-09-15T23:10:21.635Z,68.42
2022-09-15T23:12:53.238Z,68.55
2022-09-15T23:15:25.113Z,69.37
2022-09-15T23:17:56.737Z,69.29
2022-09-15T23:20:28.444Z,69.61
2022-09-15T23:23:00.224Z,69.23
2022-09-15T23:25:31.975Z,69.14
2022-09-15T23:28:03.565Z,69.00
2022-09-15T23:30:35.189Z,69.03
2022-09-15T23:33:06.802Z,69.08
2022-09-15T23:35:38.428Z,68.82
2022-09-15T23:38:10.056Z,68.52
2022-09-15T23:40:42.897Z,68.90
2022-09-15T23:43:15.499Z,68.79
2022-09-15T23:45:47.460Z,68.62
2022-09-15T23:48:19.472Z,68.56
2022-09-15T23:50:51.590Z,68.70
2022-09-15T23:53:24.096Z,68.65
2022-09-15T23:55:55.789Z,68.64
2022-09-15T23:58:27.435Z,68.58
